createdAt,value
2022-10-31T00:00:59.871Z,88.61
2022-10-31T00:03:27.307Z,88.50
2022-10-31T00:05:54.126Z,88.34
2022-10-31T00:08:20.512Z,88.09
2022-10-31T00:10:46.899Z,88.55
2022-10-31T00:13:14.297Z,88.70
2022-10-31T00:15:41.325Z,88.98
2022-10-31T00:18:09.157Z,88.82
2022-10-31T00:20:35.683Z,88.63
2022-10-31T00:23:02.547Z,88.61
2022-10-31T00:25:29.828Z,88.91
2022-10-31T00:27:56.671Z,89.29
2022-10-31T00:30:23.233Z,89.34
2022-10-31T00:32:49.642Z,89.21
2022-10-31T00:35:17.763Z,88.95
2022-10-31T00:37:45.113Z,89.00
2022-10-31T00:40:11.886Z,89.05
2022-10-31T00:42:39.614Z,89.12
2022-10-31T00:45:06.153Z,89.24
2022-10-31T00:47:32.526Z,89.25
2022-10-31T00:49:58.887Z,90.09
2022-10-31T00:52:25.294Z,89.83
2022-10-31T00:54:51.678Z,89.89
2022-10-31T00:57:18.180Z,89.81
2022-10-31T00:59:44.702Z,89.37
2022-10-31T01:02:11.477Z,89.68
2022-10-31T01:04:38.000Z,90.01
2022-10-31T01:07:04.630Z,90.30
2022-10-31T01:09:31.132Z,90.53
2022-10-31T01:11:59.380Z,90.81
2022-10-31T01:14:25.885Z,91.10
2022-10-31T01:16:52.285Z,91.43
2022-10-31T01:19:18.724Z,93.18
2022-10-31T01:21:45.123Z,91.77
2022-10-31T01:24:11.514Z,91.54
2022-10-31T01:26:38.649Z,91.58
2022-10-31T01:29:06.454Z,91.97
2022-10-31T01:31:34.467Z,91.97
2022-10-31T01:34:01.272Z,92.09
2022-10-31T01:36:29.473Z,92.59
2022-10-31T01:39:00.236Z,92.32
2022-10-31T01:41:31.504Z,92.76
2022-10-31T01:43:59.371Z,92.93
2022-10-31T01:46:37.841Z,93.22
2022-10-31T01:49:12.784Z,93.20
2022-10-31T01:51:42.899Z,93.09
2022-10-31T01:54:12.562Z,93.95
2022-10-31T01:56:40.921Z,94.10
2022-10-31T01:59:10.104Z,93.61
2022-10-31T02:01:36.936Z,93.90
2022-10-31T02:04:03.533Z,94.09
2022-10-31T02:06:41.090Z,94.03
2022-10-31T02:09:07.626Z,94.63
2022-10-31T02:11:35.667Z,95.04
2022-10-31T02:14:02.596Z,95.14
2022-10-31T02:16:29.201Z,95.08
2022-10-31T02:18:56.388Z,94.99
2022-10-31T02:22:01.668Z,94.66
2022-10-31T02:24:46.926Z,94.67
2022-10-31T02:27:13.389Z,94.51
2022-10-31T02:29:55.403Z,94.36
2022-10-31T02:32:29.029Z,94.65
2022-10-31T02:34:59.624Z,95.00
2022-10-31T02:37:30.529Z,94.90
2022-10-31T02:40:06.269Z,95.22
2022-10-31T02:43:27.464Z,94.64
2022-10-31T02:46:08.235Z,96.07
2022-10-31T02:48:38.643Z,94.99
2022-10-31T02:51:05.855Z,94.85
2022-10-31T02:53:33.363Z,94.52
2022-10-31T02:56:07.420Z,94.55
2022-10-31T02:58:35.971Z,94.75
2022-10-31T03:01:11.116Z,94.37
2022-10-31T03:03:46.949Z,94.15
2022-10-31T03:06:21.522Z,93.83
2022-10-31T03:09:04.129Z,94.38
2022-10-31T03:11:33.583Z,94.56
2022-10-31T03:14:26.334Z,95.62
2022-10-31T03:17:00.853Z,95.57
2022-10-31T03:19:30.262Z,95.91
2022-10-31T03:21:59.784Z,95.50
2022-10-31T03:24:29.646Z,95.04
2022-10-31T03:26:58.615Z,94.57
2022-10-31T03:29:28.528Z,94.81
2022-10-31T03:31:54.935Z,95.07
2022-10-31T03:34:23.069Z,95.22
2022-10-31T03:36:55.927Z,96.12
2022-10-31T03:39:23.584Z,96.51
2022-10-31T03:41:55.668Z,96.83
2022-10-31T03:44:23.428Z,96.74
2022-10-31T03:46:58.106Z,97.39
2022-10-31T03:49:24.559Z,97.88
2022-10-31T03:52:07.095Z,97.66
2022-10-31T03:54:39.917Z,97.17
2022-10-31T03:57:32.868Z,97.15
2022-10-31T04:00:04.009Z,97.45
2022-10-31T04:02:35.088Z,97.00
2022-10-31T04:05:02.432Z,96.93
2022-10-31T04:07:34.234Z,97.62
2022-10-31T04:10:01.697Z,98.16
2022-10-31T04:12:29.360Z,98.65
2022-10-31T04:15:10.619Z,98.91
2022-10-31T04:17:41.756Z,99.30
2022-10-31T04:20:08.841Z,99.32
2022-10-31T04:22:35.367Z,99.32
2022-10-31T04:25:01.800Z,99.61
2022-10-31T04:27:28.233Z,99.86
2022-10-31T04:29:54.770Z,99.27
2022-10-31T04:32:21.247Z,98.96
2022-10-31T04:34:47.681Z,98.92
2022-10-31T04:37:14.087Z,98.50
2022-10-31T04:39:40.470Z,99.00
2022-10-31T04:42:29.720Z,98.49
2022-10-31T04:44:58.197Z,97.23
2022-10-31T04:47:24.615Z,96.90
2022-10-31T04:49:52.821Z,97.27
2022-10-31T04:52:19.260Z,97.70
2022-10-31T04:54:45.914Z,98.05
2022-10-31T04:57:41.972Z,97.62
2022-10-31T05:00:09.228Z,97.16
2022-10-31T05:02:37.644Z,97.12
2022-10-31T05:05:07.402Z,97.56
2022-10-31T05:07:38.759Z,97.99
2022-10-31T05:10:05.505Z,97.66
2022-10-31T05:12:32.553Z,97.74
2022-10-31T05:15:08.087Z,97.66
2022-10-31T05:17:54.792Z,97.96
2022-10-31T05:20:59.635Z,98.42
2022-10-31T05:23:33.090Z,98.12
2022-10-31T05:26:00.088Z,98.23
2022-10-31T05:28:26.939Z,97.92
2022-10-31T05:30:54.060Z,97.94
2022-10-31T05:33:32.647Z,97.96
2022-10-31T05:36:19.512Z,97.83
2022-10-31T05:38:54.832Z,97.80
2022-10-31T05:41:26.008Z,97.70
2022-10-31T05:44:00.323Z,96.93
2022-10-31T05:46:29.377Z,97.35
2022-10-31T05:49:14.263Z,96.20
2022-10-31T05:51:46.497Z,96.32
2022-10-31T05:54:16.035Z,96.91
2022-10-31T05:56:45.037Z,97.42
2022-10-31T05:59:12.192Z,96.73
2022-10-31T06:01:39.783Z,96.63
2022-10-31T06:04:13.257Z,96.61
2022-10-31T06:06:39.806Z,97.17
2022-10-31T06:09:07.247Z,96.95
2022-10-31T06:11:35.900Z,97.95
2022-10-31T06:14:02.426Z,98.03
2022-10-31T06:16:35.494Z,98.04
2022-10-31T06:19:21.134Z,98.00
2022-10-31T06:21:47.592Z,97.93
2022-10-31T06:24:14.248Z,97.71
2022-10-31T06:27:00.696Z,97.82
2022-10-31T06:29:27.233Z,97.70
2022-10-31T06:32:05.556Z,97.47
2022-10-31T06:34:37.299Z,97.36
2022-10-31T06:37:03.727Z,97.48
2022-10-31T06:39:31.055Z,97.34
2022-10-31T06:41:58.027Z,97.17
2022-10-31T06:44:26.448Z,96.91
2022-10-31T06:46:55.480Z,97.37
2022-10-31T06:49:37.076Z,97.53
2022-10-31T06:52:09.523Z,97.39
2022-10-31T06:54:35.975Z,97.15
2022-10-31T06:57:03.411Z,97.14
2022-10-31T06:59:30.007Z,97.44
2022-10-31T07:02:14.199Z,97.30
2022-10-31T07:04:42.804Z,96.37
2022-10-31T07:07:12.536Z,95.90
2022-10-31T07:09:39.628Z,96.67
2022-10-31T07:12:07.711Z,97.11
2022-10-31T07:14:38.100Z,97.51
2022-10-31T07:17:05.979Z,97.59
2022-10-31T07:19:36.807Z,97.45
2022-10-31T07:22:03.273Z,97.26
2022-10-31T07:24:31.384Z,97.48
2022-10-31T07:27:37.628Z,97.65
2022-10-31T07:30:09.180Z,97.41
2022-10-31T07:32:48.887Z,97.52
2022-10-31T07:35:26.892Z,97.27
2022-10-31T07:37:58.469Z,97.32
2022-10-31T07:40:25.785Z,97.26
2022-10-31T07:42:53.721Z,97.29
2022-10-31T07:45:55.657Z,97.68
2022-10-31T07:49:02.726Z,97.83
2022-10-31T07:51:47.967Z,98.44
2022-10-31T07:54:34.424Z,99.46
2022-10-31T07:57:00.886Z,98.59
2022-10-31T07:59:28.251Z,97.56
2022-10-31T08:01:55.103Z,97.51
2022-10-31T08:04:30.384Z,97.21
2022-10-31T08:07:15.477Z,97.49
2022-10-31T08:09:46.790Z,97.42
2022-10-31T08:12:19.765Z,98.19
2022-10-31T08:14:46.685Z,98.09
2022-10-31T08:17:14.977Z,98.48
2022-10-31T08:19:48.783Z,98.40
2022-10-31T08:22:16.572Z,98.20
2022-10-31T08:24:44.034Z,98.59
2022-10-31T08:27:10.408Z,97.86
2022-10-31T08:29:39.051Z,98.12
2022-10-31T08:32:05.550Z,96.90
2022-10-31T08:34:50.448Z,96.53
2022-10-31T08:37:35.447Z,96.40
2022-10-31T08:40:03.729Z,96.50
2022-10-31T08:42:34.124Z,95.92
2022-10-31T08:45:01.350Z,95.62
2022-10-31T08:47:28.821Z,96.48
2022-10-31T08:49:56.454Z,95.32
2022-10-31T08:52:44.198Z,96.34
2022-10-31T08:55:11.356Z,96.19
2022-10-31T08:58:02.831Z,96.04
2022-10-31T09:00:37.653Z,96.13
2022-10-31T09:03:12.775Z,95.42
2022-10-31T09:05:39.523Z,96.11
2022-10-31T09:08:16.052Z,95.71
2022-10-31T09:10:45.183Z,95.38
2022-10-31T09:13:15.366Z,95.43
2022-10-31T09:16:01.803Z,93.50
2022-10-31T09:18:32.885Z,94.21
2022-10-31T09:21:00.248Z,93.66
2022-10-31T09:23:28.185Z,93.93
2022-10-31T09:25:55.694Z,94.34
2022-10-31T09:28:33.727Z,94.13
2022-10-31T09:31:12.280Z,93.41
2022-10-31T09:33:57.174Z,93.98
2022-10-31T09:36:35.554Z,92.79
2022-10-31T09:39:03.770Z,93.17
2022-10-31T09:41:42.155Z,93.18
2022-10-31T09:44:19.750Z,92.98
2022-10-31T09:46:58.119Z,93.08
2022-10-31T09:49:36.675Z,92.66
2022-10-31T09:54:50.686Z,91.18
2022-10-31T09:57:23.336Z,92.24
2022-10-31T09:59:50.263Z,92.70
2022-10-31T10:02:18.896Z,92.48
2022-10-31T10:04:50.760Z,91.20
2022-10-31T10:07:22.477Z,91.43
2022-10-31T10:10:36.199Z,90.50
2022-10-31T10:13:34.269Z,90.62
2022-10-31T10:16:04.299Z,89.54
2022-10-31T10:18:49.648Z,89.74
2022-10-31T10:21:25.222Z,90.50
2022-10-31T10:23:54.729Z,90.42
2022-10-31T10:26:22.787Z,91.71
2022-10-31T10:29:02.091Z,91.44
2022-10-31T10:31:30.352Z,90.59
2022-10-31T10:34:01.240Z,91.29
2022-10-31T10:36:31.825Z,91.61
2022-10-31T10:38:58.201Z,91.39
2022-10-31T10:41:25.248Z,91.71
2022-10-31T10:43:52.166Z,91.77
2022-10-31T10:46:49.647Z,91.83
2022-10-31T10:49:19.219Z,90.10
2022-10-31T10:55:10.860Z,89.26
2022-10-31T10:57:56.380Z,89.17
2022-10-31T11:00:22.739Z,89.16
2022-10-31T11:02:49.527Z,89.00
2022-10-31T11:05:21.180Z,88.10
2022-10-31T11:07:47.560Z,89.14
2022-10-31T11:10:17.375Z,87.82
2022-10-31T11:12:45.149Z,87.05
2022-10-31T11:15:19.555Z,86.17
2022-10-31T11:17:49.147Z,86.34
2022-10-31T11:20:18.129Z,86.32
2022-10-31T11:22:46.781Z,85.02
2022-10-31T11:25:23.607Z,85.12
2022-10-31T11:28:19.649Z,85.95
2022-10-31T11:30:51.308Z,84.99
2022-10-31T11:33:19.995Z,84.73
2022-10-31T11:35:48.412Z,85.08
2022-10-31T11:38:18.503Z,84.44
2022-10-31T11:40:56.345Z,83.32
2022-10-31T11:43:23.335Z,84.34
2022-10-31T11:45:50.068Z,83.73
2022-10-31T11:48:17.404Z,83.20
2022-10-31T11:50:48.315Z,81.91
2022-10-31T11:53:16.720Z,80.89
2022-10-31T11:55:43.727Z,80.46
2022-10-31T11:58:23.615Z,81.38
2022-10-31T12:00:51.268Z,82.25
2022-10-31T12:03:23.918Z,80.89
2022-10-31T12:05:54.020Z,80.50
2022-10-31T12:08:20.650Z,81.56
2022-10-31T12:11:06.119Z,81.93
2022-10-31T12:13:35.447Z,81.84
2022-10-31T12:16:05.153Z,81.68
2022-10-31T12:18:51.833Z,81.91
2022-10-31T12:21:24.208Z,81.24
2022-10-31T12:23:56.800Z,81.45
2022-10-31T12:26:42.012Z,81.20
2022-10-31T12:29:23.724Z,77.25
2022-10-31T12:31:56.329Z,77.70
2022-10-31T12:34:28.820Z,78.56
2022-10-31T12:36:58.307Z,75.46
2022-10-31T12:39:27.881Z,76.49
2022-10-31T12:42:13.938Z,76.46
2022-10-31T12:44:43.421Z,77.67
2022-10-31T12:47:22.114Z,75.23
2022-10-31T12:50:07.368Z,74.20
2022-10-31T12:52:42.848Z,74.17
2022-10-31T12:55:35.626Z,73.38
2022-10-31T12:58:04.884Z,74.37
2022-10-31T13:00:33.291Z,74.73
2022-10-31T13:03:18.721Z,74.75
2022-10-31T13:05:47.716Z,74.43
2022-10-31T13:08:19.802Z,74.53
2022-10-31T13:10:56.883Z,74.38
2022-10-31T13:13:38.584Z,74.61
2022-10-31T13:16:08.703Z,73.54
2022-10-31T13:18:39.578Z,73.89
2022-10-31T13:21:10.168Z,73.05
2022-10-31T13:23:50.769Z,74.06
2022-10-31T13:26:24.178Z,74.01
2022-10-31T13:28:58.474Z,73.93
2022-10-31T13:31:24.926Z,74.79
2022-10-31T13:33:54.089Z,74.17
2022-10-31T13:36:20.451Z,73.49
2022-10-31T13:38:49.955Z,73.61
2022-10-31T13:41:19.415Z,72.70
2022-10-31T13:44:04.808Z,72.75
2022-10-31T13:46:34.434Z,73.09
2022-10-31T13:49:01.138Z,72.15
2022-10-31T13:51:31.875Z,73.14
2022-10-31T13:54:06.786Z,72.54
2022-10-31T13:56:34.406Z,72.69
2022-10-31T13:59:12.010Z,72.27
2022-10-31T14:01:46.850Z,72.15
2022-10-31T14:04:23.973Z,72.68
2022-10-31T14:07:11.980Z,72.73
2022-10-31T14:09:38.321Z,73.32
2022-10-31T14:12:07.206Z,73.39
2022-10-31T14:14:42.705Z,72.84
2022-10-31T14:17:16.972Z,73.63
2022-10-31T14:19:43.427Z,73.87
2022-10-31T14:22:20.501Z,73.36
2022-10-31T14:24:46.924Z,73.41
2022-10-31T14:27:25.714Z,73.46
2022-10-31T14:29:52.163Z,72.88
2022-10-31T14:32:26.505Z,72.64
2022-10-31T14:34:52.982Z,72.41
2022-10-31T14:37:31.342Z,72.73
2022-10-31T14:40:00.573Z,72.65
2022-10-31T14:42:46.055Z,71.92
2022-10-31T14:45:18.763Z,71.45
2022-10-31T14:47:56.866Z,72.26
2022-10-31T14:50:24.040Z,72.16
2022-10-31T14:52:52.229Z,72.07
2022-10-31T14:55:19.498Z,72.23
2022-10-31T14:57:55.074Z,71.76
2022-10-31T15:00:22.799Z,72.48
2022-10-31T15:03:04.165Z,71.60
2022-10-31T15:05:31.445Z,71.92
2022-10-31T15:07:58.969Z,70.78
2022-10-31T15:10:26.175Z,70.61
2022-10-31T15:12:52.886Z,72.06
2022-10-31T15:15:22.300Z,72.28
2022-10-31T15:18:01.565Z,72.26
2022-10-31T15:20:30.011Z,72.33
2022-10-31T15:22:57.303Z,72.33
2022-10-31T15:25:24.699Z,72.11
2022-10-31T15:27:52.215Z,72.54
2022-10-31T15:30:21.875Z,72.11
2022-10-31T15:32:57.516Z,71.59
2022-10-31T15:35:29.288Z,71.37
2022-10-31T15:37:57.230Z,71.91
2022-10-31T15:40:24.966Z,71.98
2022-10-31T15:42:59.273Z,71.87
2022-10-31T15:45:27.697Z,71.26
2022-10-31T15:47:54.133Z,71.69
2022-10-31T15:50:23.555Z,71.30
2022-10-31T15:52:51.199Z,71.85
2022-10-31T15:55:20.405Z,71.39
2022-10-31T15:57:48.541Z,71.97
2022-10-31T16:00:24.062Z,71.52
2022-10-31T16:02:50.494Z,71.83
2022-10-31T16:05:20.512Z,71.97
2022-10-31T16:07:50.840Z,71.92
2022-10-31T16:10:26.137Z,71.95
2022-10-31T16:12:53.243Z,72.09
2022-10-31T16:15:20.903Z,72.11
2022-10-31T16:17:51.531Z,71.39
2022-10-31T16:20:26.340Z,72.14
2022-10-31T16:22:54.276Z,72.17
2022-10-31T16:25:25.346Z,71.88
2022-10-31T16:27:54.385Z,71.73
2022-10-31T16:30:37.082Z,71.57
2022-10-31T16:33:04.072Z,71.60
2022-10-31T16:35:35.635Z,71.88
2022-10-31T16:38:02.511Z,71.78
2022-10-31T16:40:29.260Z,71.71
2022-10-31T16:42:57.603Z,71.43
2022-10-31T16:45:26.482Z,71.63
2022-10-31T16:47:53.190Z,70.88
2022-10-31T16:50:26.682Z,71.40
2022-10-31T16:53:12.858Z,71.46
2022-10-31T16:55:42.939Z,71.54
2022-10-31T16:58:12.774Z,71.19
2022-10-31T17:00:39.172Z,71.10
2022-10-31T17:03:05.710Z,70.77
2022-10-31T17:05:32.915Z,70.51
2022-10-31T17:08:00.181Z,70.52
2022-10-31T17:10:27.720Z,70.98
2022-10-31T17:12:54.276Z,70.38
2022-10-31T17:15:25.226Z,70.88
2022-10-31T17:17:52.438Z,70.86
2022-10-31T17:20:23.320Z,70.25
2022-10-31T17:22:49.771Z,70.64
2022-10-31T17:25:17.819Z,71.04
2022-10-31T17:27:47.282Z,71.11
2022-10-31T17:30:14.409Z,71.45
2022-10-31T17:32:41.358Z,71.48
2022-10-31T17:35:08.656Z,72.19
2022-10-31T17:37:35.134Z,71.94
2022-10-31T17:40:02.225Z,72.14
2022-10-31T17:42:28.685Z,71.77
2022-10-31T17:44:55.210Z,71.40
2022-10-31T17:47:21.622Z,71.60
2022-10-31T17:49:48.155Z,71.17
2022-10-31T17:52:14.554Z,71.39
2022-10-31T17:54:40.969Z,71.53
2022-10-31T17:57:07.424Z,71.38
2022-10-31T17:59:33.919Z,71.62
2022-10-31T18:02:00.674Z,71.50
2022-10-31T18:04:28.535Z,72.09
2022-10-31T18:06:55.262Z,72.25
2022-10-31T18:09:21.752Z,72.07
2022-10-31T18:11:48.122Z,72.18
2022-10-31T18:14:14.540Z,72.06
2022-10-31T18:16:41.000Z,72.54
2022-10-31T18:19:07.541Z,72.67
2022-10-31T18:21:33.964Z,72.38
2022-10-31T18:24:00.829Z,72.25
2022-10-31T18:26:27.776Z,72.50
2022-10-31T18:28:54.488Z,72.64
2022-10-31T18:31:21.162Z,72.50
2022-10-31T18:33:47.655Z,72.57
2022-10-31T18:36:14.243Z,72.84
2022-10-31T18:38:41.618Z,73.24
2022-10-31T18:41:08.696Z,73.10
2022-10-31T18:43:35.129Z,73.24
2022-10-31T18:46:06.196Z,73.49
2022-10-31T18:48:32.983Z,73.58
2022-10-31T18:51:06.326Z,73.71
2022-10-31T18:53:33.220Z,73.33
2022-10-31T18:55:59.816Z,74.04
2022-10-31T18:58:27.174Z,74.52
2022-10-31T19:00:54.098Z,74.16
2022-10-31T19:03:25.660Z,74.28
2022-10-31T19:05:56.314Z,74.53
2022-10-31T19:08:22.869Z,73.92
2022-10-31T19:10:49.461Z,74.58
2022-10-31T19:13:16.020Z,74.67
2022-10-31T19:15:42.694Z,75.19
2022-10-31T19:18:09.289Z,75.56
2022-10-31T19:20:37.477Z,75.75
2022-10-31T19:23:04.310Z,76.07
2022-10-31T19:25:30.882Z,76.11
2022-10-31T19:27:58.039Z,76.66
2022-10-31T19:30:24.539Z,76.24
2022-10-31T19:32:53.801Z,77.11
2022-10-31T19:35:20.296Z,76.57
2022-10-31T19:37:46.732Z,76.77
2022-10-31T19:40:13.584Z,76.81
2022-10-31T19:42:39.979Z,77.18
2022-10-31T19:45:06.735Z,76.61
2022-10-31T19:47:33.354Z,75.85
2022-10-31T19:49:59.735Z,76.84
2022-10-31T19:52:26.220Z,77.05
2022-10-31T19:54:52.675Z,76.98
2022-10-31T19:57:30.766Z,76.97
2022-10-31T20:00:05.829Z,77.23
2022-10-31T20:02:38.146Z,77.65
2022-10-31T20:05:04.754Z,78.01
2022-10-31T20:07:31.150Z,78.48
2022-10-31T20:09:57.536Z,78.34
2022-10-31T20:12:23.921Z,77.59
2022-10-31T20:14:50.317Z,77.67
2022-10-31T20:17:16.690Z,77.45
2022-10-31T20:19:43.232Z,77.82
2022-10-31T20:22:11.027Z,77.82
2022-10-31T20:24:37.402Z,77.81
2022-10-31T20:27:05.670Z,78.11
2022-10-31T20:29:32.064Z,78.31
2022-10-31T20:31:58.463Z,78.47
2022-10-31T20:34:25.098Z,79.13
2022-10-31T20:36:51.604Z,78.85
2022-10-31T20:39:17.991Z,78.86
2022-10-31T20:41:44.407Z,78.75
2022-10-31T20:44:10.811Z,79.03
2022-10-31T20:46:37.226Z,78.81
2022-10-31T20:49:03.803Z,79.09
2022-10-31T20:51:31.712Z,79.51
2022-10-31T20:53:59.231Z,79.14
2022-10-31T20:56:26.450Z,80.21
2022-10-31T20:58:54.302Z,79.89
2022-10-31T21:01:22.399Z,80.48
2022-10-31T21:03:49.309Z,80.38
2022-10-31T21:06:16.536Z,80.31
2022-10-31T21:08:43.348Z,80.81
2022-10-31T21:11:11.613Z,80.02
2022-10-31T21:13:40.760Z,80.65
2022-10-31T21:16:09.273Z,80.64
2022-10-31T21:18:36.415Z,80.59
2022-10-31T21:21:10.102Z,79.97
2022-10-31T21:23:36.667Z,79.52
2022-10-31T21:26:11.552Z,80.32
2022-10-31T21:28:38.047Z,80.46
2022-10-31T21:31:08.522Z,79.79
2022-10-31T21:33:35.339Z,79.42
2022-10-31T21:36:02.129Z,78.94
2022-10-31T21:38:28.675Z,79.29
2022-10-31T21:41:05.384Z,80.70
2022-10-31T21:43:34.628Z,79.38
2022-10-31T21:46:11.652Z,79.68
2022-10-31T21:48:42.276Z,79.66
2022-10-31T21:51:10.246Z,79.97
2022-10-31T21:53:55.494Z,79.89
2022-10-31T21:56:22.628Z,80.37
2022-10-31T21:58:49.024Z,80.70
2022-10-31T22:01:15.597Z,80.27
2022-10-31T22:03:42.503Z,79.82
2022-10-31T22:06:10.260Z,79.71
2022-10-31T22:08:36.755Z,79.15
2022-10-31T22:11:04.068Z,79.26
2022-10-31T22:13:31.568Z,80.18
2022-10-31T22:16:05.156Z,80.08
2022-10-31T22:18:31.537Z,80.60
2022-10-31T22:21:02.098Z,80.16
2022-10-31T22:23:28.858Z,80.01
2022-10-31T22:25:55.340Z,80.36
2022-10-31T22:28:21.694Z,80.98
2022-10-31T22:30:48.171Z,80.27
2022-10-31T22:33:14.578Z,79.77
2022-10-31T22:35:40.998Z,80.39
2022-10-31T22:38:07.359Z,80.38
2022-10-31T22:40:34.036Z,80.85
2022-10-31T22:43:00.723Z,80.89
2022-10-31T22:45:27.298Z,80.13
2022-10-31T22:47:53.656Z,79.95
2022-10-31T22:50:20.036Z,80.37
2022-10-31T22:52:46.445Z,80.65
2022-10-31T22:55:15.306Z,80.39
2022-10-31T22:57:41.776Z,80.50
2022-10-31T23:00:08.807Z,80.85
2022-10-31T23:02:35.523Z,80.28
2022-10-31T23:05:02.060Z,80.70
2022-10-31T23:07:32.869Z,80.56
2022-10-31T23:09:59.543Z,81.07
2022-10-31T23:12:44.744Z,80.46
2022-10-31T23:15:11.115Z,80.60
2022-10-31T23:17:39.111Z,81.16
2022-10-31T23:20:06.893Z,81.36
2022-10-31T23:22:33.377Z,81.75
2022-10-31T23:24:59.806Z,81.64
2022-10-31T23:27:27.008Z,82.30
2022-10-31T23:29:57.545Z,83.03
2022-10-31T23:32:28.125Z,84.00
2022-10-31T23:34:55.684Z,84.31
2022-10-31T23:37:23.050Z,84.93
2022-10-31T23:39:49.510Z,85.54
2022-10-31T23:42:16.216Z,85.90
2022-10-31T23:44:42.938Z,85.90
2022-10-31T23:47:09.344Z,87.43
2022-10-31T23:49:35.748Z,88.56
2022-10-31T23:52:03.103Z,89.09
2022-10-31T23:54:29.577Z,90.34
2022-10-31T23:56:56.203Z,91.44
2022-10-31T23:59:22.808Z,91.89
